sensor_id;sensor_type;location;lat;lon;timestamp;temperature;humidity
72277;SHT30;61204;49.980;8.358;2024-02-04T00:01:53;9.91;86.03
72277;SHT30;61204;49.980;8.358;2024-02-04T00:04:18;9.91;86.15
72277;SHT30;61204;49.980;8.358;2024-02-04T00:06:44;9.87;86.38
72277;SHT30;61204;49.980;8.358;2024-02-04T00:09:10;9.86;86.32
72277;SHT30;61204;49.980;8.358;2024-02-04T00:11:35;9.85;86.46
72277;SHT30;61204;49.980;8.358;2024-02-04T00:14:01;9.85;86.49
72277;SHT30;61204;49.980;8.358;2024-02-04T00:16:28;9.80;86.52
72277;SHT30;61204;49.980;8.358;2024-02-04T00:18:54;9.80;86.51
72277;SHT30;61204;49.980;8.358;2024-02-04T00:21:19;9.80;86.40
72277;SHT30;61204;49.980;8.358;2024-02-04T00:23:45;9.82;86.35
72277;SHT30;61204;49.980;8.358;2024-02-04T00:26:11;9.82;86.33
72277;SHT30;61204;49.980;8.358;2024-02-04T00:28:38;9.79;86.54
72277;SHT30;61204;49.980;8.358;2024-02-04T00:31:08;9.86;86.14
72277;SHT30;61204;49.980;8.358;2024-02-04T00:33:34;9.79;86.43
72277;SHT30;61204;49.980;8.358;2024-02-04T00:36:01;9.76;86.57
72277;SHT30;61204;49.980;8.358;2024-02-04T00:38:32;9.73;86.58
72277;SHT30;61204;49.980;8.358;2024-02-04T00:40:57;9.77;86.52
72277;SHT30;61204;49.980;8.358;2024-02-04T00:43:23;9.75;86.80
72277;SHT30;61204;49.980;8.358;2024-02-04T00:45:48;9.72;86.78
72277;SHT30;61204;49.980;8.358;2024-02-04T00:48:14;9.72;86.59
72277;SHT30;61204;49.980;8.358;2024-02-04T00:50:42;9.73;86.49
72277;SHT30;61204;49.980;8.358;2024-02-04T00:53:07;9.79;86.41
72277;SHT30;61204;49.980;8.358;2024-02-04T00:55:33;9.73;86.45
72277;SHT30;61204;49.980;8.358;2024-02-04T00:57:58;9.72;86.62
72277;SHT30;61204;49.980;8.358;2024-02-04T01:00:26;9.66;86.68
72277;SHT30;61204;49.980;8.358;2024-02-04T01:02:52;9.73;86.41
72277;SHT30;61204;49.980;8.358;2024-02-04T01:05:18;9.70;86.52
72277;SHT30;61204;49.980;8.358;2024-02-04T01:07:46;9.75;86.36
72277;SHT30;61204;49.980;8.358;2024-02-04T01:10:11;9.72;86.31
72277;SHT30;61204;49.980;8.358;2024-02-04T01:12:37;9.67;86.56
72277;SHT30;61204;49.980;8.358;2024-02-04T01:15:03;9.65;86.57
72277;SHT30;61204;49.980;8.358;2024-02-04T01:17:30;9.62;86.62
72277;SHT30;61204;49.980;8.358;2024-02-04T01:19:56;9.62;86.67
72277;SHT30;61204;49.980;8.358;2024-02-04T01:22:22;9.62;86.96
72277;SHT30;61204;49.980;8.358;2024-02-04T01:24:53;9.55;86.90
72277;SHT30;61204;49.980;8.358;2024-02-04T01:27:18;9.62;86.62
72277;SHT30;61204;49.980;8.358;2024-02-04T01:29:44;9.62;86.66
72277;SHT30;61204;49.980;8.358;2024-02-04T01:32:12;9.70;86.38
72277;SHT30;61204;49.980;8.358;2024-02-04T01:34:38;9.70;86.35
72277;SHT30;61204;49.980;8.358;2024-02-04T01:37:03;9.69;86.40
72277;SHT30;61204;49.980;8.358;2024-02-04T01:39:34;9.67;86.57
72277;SHT30;61204;49.980;8.358;2024-02-04T01:42:00;9.73;86.44
72277;SHT30;61204;49.980;8.358;2024-02-04T01:44:26;9.80;86.19
72277;SHT30;61204;49.980;8.358;2024-02-04T01:46:53;9.75;86.40
72277;SHT30;61204;49.980;8.358;2024-02-04T01:49:20;9.79;86.44
72277;SHT30;61204;49.980;8.358;2024-02-04T01:51:46;9.66;87.41
72277;SHT30;61204;49.980;8.358;2024-02-04T01:54:15;9.59;88.15
72277;SHT30;61204;49.980;8.358;2024-02-04T01:56:46;9.59;88.72
72277;SHT30;61204;49.980;8.358;2024-02-04T01:59:14;9.50;89.43
72277;SHT30;61204;49.980;8.358;2024-02-04T02:01:43;9.41;90.18
72277;SHT30;61204;49.980;8.358;2024-02-04T02:04:09;9.39;90.28
72277;SHT30;61204;49.980;8.358;2024-02-04T02:06:35;9.34;90.83
72277;SHT30;61204;49.980;8.358;2024-02-04T02:09:09;9.31;91.11
72277;SHT30;61204;49.980;8.358;2024-02-04T02:11:47;9.28;91.40
72277;SHT30;61204;49.980;8.358;2024-02-04T02:14:23;9.17;91.86
72277;SHT30;61204;49.980;8.358;2024-02-04T02:16:57;9.13;92.33
72277;SHT30;61204;49.980;8.358;2024-02-04T02:22:49;9.15;92.39
72277;SHT30;61204;49.980;8.358;2024-02-04T02:25:27;9.18;92.00
72277;SHT30;61204;49.980;8.358;2024-02-04T02:27:55;9.21;91.83
72277;SHT30;61204;49.980;8.358;2024-02-04T02:30:21;9.20;91.78
72277;SHT30;61204;49.980;8.358;2024-02-04T02:32:49;9.24;91.73
72277;SHT30;61204;49.980;8.358;2024-02-04T02:35:18;9.31;91.06
72277;SHT30;61204;49.980;8.358;2024-02-04T02:40:45;9.28;91.64
72277;SHT30;61204;49.980;8.358;2024-02-04T02:43:14;9.28;91.75
72277;SHT30;61204;49.980;8.358;2024-02-04T02:45:42;9.22;92.47
72277;SHT30;61204;49.980;8.358;2024-02-04T02:48:11;9.17;92.92
72277;SHT30;61204;49.980;8.358;2024-02-04T02:50:38;9.17;92.70
72277;SHT30;61204;49.980;8.358;2024-02-04T02:53:06;9.17;92.47
72277;SHT30;61204;49.980;8.358;2024-02-04T02:55:34;9.18;92.31
72277;SHT30;61204;49.980;8.358;2024-02-04T02:58:18;9.20;92.59
72277;SHT30;61204;49.980;8.358;2024-02-04T03:00:43;9.18;92.40
72277;SHT30;61204;49.980;8.358;2024-02-04T03:03:10;9.18;92.35
72277;SHT30;61204;49.980;8.358;2024-02-04T03:05:36;9.21;92.41
72277;SHT30;61204;49.980;8.358;2024-02-04T03:08:03;9.24;92.05
72277;SHT30;61204;49.980;8.358;2024-02-04T03:10:29;9.21;92.40
72277;SHT30;61204;49.980;8.358;2024-02-04T03:12:55;9.18;92.25
72277;SHT30;61204;49.980;8.358;2024-02-04T03:15:20;9.20;92.15
72277;SHT30;61204;49.980;8.358;2024-02-04T03:17:46;9.22;92.36
72277;SHT30;61204;49.980;8.358;2024-02-04T03:20:15;9.27;91.85
72277;SHT30;61204;49.980;8.358;2024-02-04T03:22:40;9.34;90.96
72277;SHT30;61204;49.980;8.358;2024-02-04T03:25:06;9.38;91.16
72277;SHT30;61204;49.980;8.358;2024-02-04T03:27:34;9.34;91.41
72277;SHT30;61204;49.980;8.358;2024-02-04T03:30:00;9.31;91.26
72277;SHT30;61204;49.980;8.358;2024-02-04T03:32:28;9.34;91.17
72277;SHT30;61204;49.980;8.358;2024-02-04T03:35:01;9.35;90.88
72277;SHT30;61204;49.980;8.358;2024-02-04T03:37:29;9.34;91.23
72277;SHT30;61204;49.980;8.358;2024-02-04T03:39:54;9.32;91.53
72277;SHT30;61204;49.980;8.358;2024-02-04T03:42:20;9.34;91.49
72277;SHT30;61204;49.980;8.358;2024-02-04T03:44:47;9.27;91.83
72277;SHT30;61204;49.980;8.358;2024-02-04T03:47:16;9.27;91.75
72277;SHT30;61204;49.980;8.358;2024-02-04T03:49:41;9.27;91.67
72277;SHT30;61204;49.980;8.358;2024-02-04T03:52:07;9.35;90.98
72277;SHT30;61204;49.980;8.358;2024-02-04T03:54:32;9.42;90.74
72277;SHT30;61204;49.980;8.358;2024-02-04T03:56:58;9.48;90.14
72277;SHT30;61204;49.980;8.358;2024-02-04T03:59:23;9.46;90.33
72277;SHT30;61204;49.980;8.358;2024-02-04T04:01:52;9.46;90.20
72277;SHT30;61204;49.980;8.358;2024-02-04T04:04:23;9.43;90.34
72277;SHT30;61204;49.980;8.358;2024-02-04T04:06:48;9.49;89.98
72277;SHT30;61204;49.980;8.358;2024-02-04T04:09:14;9.58;89.31
72277;SHT30;61204;49.980;8.358;2024-02-04T04:11:40;9.60;89.11
72277;SHT30;61204;49.980;8.358;2024-02-04T04:14:06;9.67;88.87
72277;SHT30;61204;49.980;8.358;2024-02-04T04:16:31;9.76;87.97
72277;SHT30;61204;49.980;8.358;2024-02-04T04:18:59;9.77;88.22
72277;SHT30;61204;49.980;8.358;2024-02-04T04:21:27;9.73;88.20
72277;SHT30;61204;49.980;8.358;2024-02-04T04:23:53;9.69;88.35
72277;SHT30;61204;49.980;8.358;2024-02-04T04:26:18;9.73;88.47
72277;SHT30;61204;49.980;8.358;2024-02-04T04:28:44;9.70;88.11
72277;SHT30;61204;49.980;8.358;2024-02-04T04:31:09;9.73;87.93
72277;SHT30;61204;49.980;8.358;2024-02-04T04:33:38;9.75;87.85
72277;SHT30;61204;49.980;8.358;2024-02-04T04:36:04;9.76;87.91
72277;SHT30;61204;49.980;8.358;2024-02-04T04:38:32;9.77;87.72
72277;SHT30;61204;49.980;8.358;2024-02-04T04:40:58;9.83;87.63
72277;SHT30;61204;49.980;8.358;2024-02-04T04:43:23;9.77;87.78
72277;SHT30;61204;49.980;8.358;2024-02-04T04:45:49;9.79;87.57
72277;SHT30;61204;49.980;8.358;2024-02-04T04:48:15;9.80;87.86
72277;SHT30;61204;49.980;8.358;2024-02-04T04:50:40;9.80;87.57
72277;SHT30;61204;49.980;8.358;2024-02-04T04:53:06;9.80;87.62
72277;SHT30;61204;49.980;8.358;2024-02-04T04:55:34;9.80;87.68
72277;SHT30;61204;49.980;8.358;2024-02-04T04:57:59;9.73;88.06
72277;SHT30;61204;49.980;8.358;2024-02-04T05:00:25;9.80;87.65
72277;SHT30;61204;49.980;8.358;2024-02-04T05:02:50;9.76;87.71
72277;SHT30;61204;49.980;8.358;2024-02-04T05:05:16;9.73;87.70
72277;SHT30;61204;49.980;8.358;2024-02-04T05:07:44;9.82;87.51
72277;SHT30;61204;49.980;8.358;2024-02-04T05:10:12;9.82;87.40
72277;SHT30;61204;49.980;8.358;2024-02-04T05:12:37;9.83;87.37
72277;SHT30;61204;49.980;8.358;2024-02-04T05:15:05;9.86;87.43
72277;SHT30;61204;49.980;8.358;2024-02-04T05:17:31;9.82;87.43
72277;SHT30;61204;49.980;8.358;2024-02-04T05:19:57;9.79;87.43
72277;SHT30;61204;49.980;8.358;2024-02-04T05:22:25;9.79;87.43
72277;SHT30;61204;49.980;8.358;2024-02-04T05:24:50;9.83;87.33
72277;SHT30;61204;49.980;8.358;2024-02-04T05:27:16;9.83;87.37
72277;SHT30;61204;49.980;8.358;2024-02-04T05:29:41;9.80;87.63
72277;SHT30;61204;49.980;8.358;2024-02-04T05:32:07;9.70;87.74
72277;SHT30;61204;49.980;8.358;2024-02-04T05:34:33;9.73;88.03
72277;SHT30;61204;49.980;8.358;2024-02-04T05:37:01;9.72;87.93
72277;SHT30;61204;49.980;8.358;2024-02-04T05:39:28;9.69;88.06
72277;SHT30;61204;49.980;8.358;2024-02-04T05:41:53;9.69;88.07
72277;SHT30;61204;49.980;8.358;2024-02-04T05:44:19;9.62;88.36
72277;SHT30;61204;49.980;8.358;2024-02-04T05:46:44;9.63;88.29
72277;SHT30;61204;49.980;8.358;2024-02-04T05:49:11;9.72;88.19
72277;SHT30;61204;49.980;8.358;2024-02-04T05:51:41;9.69;88.34
72277;SHT30;61204;49.980;8.358;2024-02-04T05:54:07;9.65;88.48
72277;SHT30;61204;49.980;8.358;2024-02-04T05:56:34;9.60;88.46
72277;SHT30;61204;49.980;8.358;2024-02-04T05:59:00;9.62;88.50
72277;SHT30;61204;49.980;8.358;2024-02-04T06:01:26;9.59;88.60
72277;SHT30;61204;49.980;8.358;2024-02-04T06:03:51;9.55;88.77
72277;SHT30;61204;49.980;8.358;2024-02-04T06:06:18;9.56;88.81
72277;SHT30;61204;49.980;8.358;2024-02-04T06:08:46;9.60;88.50
72277;SHT30;61204;49.980;8.358;2024-02-04T06:11:15;9.52;88.90
72277;SHT30;61204;49.980;8.358;2024-02-04T06:13:43;9.56;88.94
72277;SHT30;61204;49.980;8.358;2024-02-04T06:16:10;9.56;88.83
72277;SHT30;61204;49.980;8.358;2024-02-04T06:18:39;9.56;88.86
72277;SHT30;61204;49.980;8.358;2024-02-04T06:21:06;9.56;88.80
72277;SHT30;61204;49.980;8.358;2024-02-04T06:23:32;9.52;88.78
72277;SHT30;61204;49.980;8.358;2024-02-04T06:26:00;9.50;88.71
72277;SHT30;61204;49.980;8.358;2024-02-04T06:28:26;9.56;88.53
72277;SHT30;61204;49.980;8.358;2024-02-04T06:30:57;9.58;88.52
72277;SHT30;61204;49.980;8.358;2024-02-04T06:33:25;9.56;88.71
72277;SHT30;61204;49.980;8.358;2024-02-04T06:35:50;9.58;88.74
72277;SHT30;61204;49.980;8.358;2024-02-04T06:38:16;9.52;88.76
72277;SHT30;61204;49.980;8.358;2024-02-04T06:40:42;9.50;88.80
72277;SHT30;61204;49.980;8.358;2024-02-04T06:43:07;9.53;88.81
72277;SHT30;61204;49.980;8.358;2024-02-04T06:45:33;9.52;88.65
72277;SHT30;61204;49.980;8.358;2024-02-04T06:48:01;9.58;88.58
72277;SHT30;61204;49.980;8.358;2024-02-04T06:50:28;9.55;88.72
72277;SHT30;61204;49.980;8.358;2024-02-04T06:52:54;9.53;88.71
72277;SHT30;61204;49.980;8.358;2024-02-04T06:55:19;9.55;88.58
72277;SHT30;61204;49.980;8.358;2024-02-04T06:57:45;9.58;88.59
72277;SHT30;61204;49.980;8.358;2024-02-04T07:00:11;9.56;88.71
72277;SHT30;61204;49.980;8.358;2024-02-04T07:02:38;9.59;88.58
72277;SHT30;61204;49.980;8.358;2024-02-04T07:05:04;9.62;88.30
72277;SHT30;61204;49.980;8.358;2024-02-04T07:07:32;9.60;88.39
72277;SHT30;61204;49.980;8.358;2024-02-04T07:09:59;9.56;88.66
72277;SHT30;61204;49.980;8.358;2024-02-04T07:12:27;9.56;88.54
72277;SHT30;61204;49.980;8.358;2024-02-04T07:14:55;9.58;88.63
72277;SHT30;61204;49.980;8.358;2024-02-04T07:17:20;9.63;88.56
72277;SHT30;61204;49.980;8.358;2024-02-04T07:19:46;9.62;88.46
72277;SHT30;61204;49.980;8.358;2024-02-04T07:22:12;9.67;88.31
72277;SHT30;61204;49.980;8.358;2024-02-04T07:24:37;9.67;88.42
72277;SHT30;61204;49.980;8.358;2024-02-04T07:27:05;9.69;88.29
72277;SHT30;61204;49.980;8.358;2024-02-04T07:29:30;9.72;88.34
72277;SHT30;61204;49.980;8.358;2024-02-04T07:31:56;9.79;88.05
72277;SHT30;61204;49.980;8.358;2024-02-04T07:34:22;9.73;88.03
72277;SHT30;61204;49.980;8.358;2024-02-04T07:36:50;9.75;88.16
72277;SHT30;61204;49.980;8.358;2024-02-04T07:39:20;9.76;88.07
72277;SHT30;61204;49.980;8.358;2024-02-04T07:41:46;9.80;88.02
72277;SHT30;61204;49.980;8.358;2024-02-04T07:44:11;9.77;87.95
72277;SHT30;61204;49.980;8.358;2024-02-04T07:46:37;9.73;88.09
72277;SHT30;61204;49.980;8.358;2024-02-04T07:49:02;9.75;88.23
72277;SHT30;61204;49.980;8.358;2024-02-04T07:51:28;9.77;88.12
72277;SHT30;61204;49.980;8.358;2024-02-04T07:53:53;9.75;88.39
72277;SHT30;61204;49.980;8.358;2024-02-04T07:56:19;9.79;88.21
72277;SHT30;61204;49.980;8.358;2024-02-04T07:58:44;9.82;88.01
72277;SHT30;61204;49.980;8.358;2024-02-04T08:01:10;9.82;88.33
72277;SHT30;61204;49.980;8.358;2024-02-04T08:03:35;9.85;88.10
72277;SHT30;61204;49.980;8.358;2024-02-04T08:06:03;9.80;88.03
72277;SHT30;61204;49.980;8.358;2024-02-04T08:08:32;9.80;88.27
72277;SHT30;61204;49.980;8.358;2024-02-04T08:11:00;9.86;88.08
72277;SHT30;61204;49.980;8.358;2024-02-04T08:13:27;9.90;87.67
72277;SHT30;61204;49.980;8.358;2024-02-04T08:15:53;9.94;87.95
72277;SHT30;61204;49.980;8.358;2024-02-04T08:18:18;9.94;87.40
72277;SHT30;61204;49.980;8.358;2024-02-04T08:20:46;9.97;87.43
72277;SHT30;61204;49.980;8.358;2024-02-04T08:23:12;9.94;87.73
72277;SHT30;61204;49.980;8.358;2024-02-04T08:25:37;9.94;87.56
72277;SHT30;61204;49.980;8.358;2024-02-04T08:28:03;9.97;87.49
72277;SHT30;61204;49.980;8.358;2024-02-04T08:30:29;10.01;87.55
72277;SHT30;61204;49.980;8.358;2024-02-04T08:32:55;9.94;87.68
72277;SHT30;61204;49.980;8.358;2024-02-04T08:35:23;9.96;87.97
72277;SHT30;61204;49.980;8.358;2024-02-04T08:37:48;9.89;88.17
72277;SHT30;61204;49.980;8.358;2024-02-04T08:40:14;9.89;88.45
72277;SHT30;61204;49.980;8.358;2024-02-04T08:42:39;9.86;88.73
72277;SHT30;61204;49.980;8.358;2024-02-04T08:45:06;9.87;88.92
72277;SHT30;61204;49.980;8.358;2024-02-04T08:47:37;9.93;88.90
72277;SHT30;61204;49.980;8.358;2024-02-04T08:50:03;10.00;88.43
72277;SHT30;61204;49.980;8.358;2024-02-04T08:52:28;10.07;88.72
72277;SHT30;61204;49.980;8.358;2024-02-04T08:54:54;10.13;88.47
72277;SHT30;61204;49.980;8.358;2024-02-04T08:57:19;10.08;88.76
72277;SHT30;61204;49.980;8.358;2024-02-04T08:59:45;10.14;88.39
72277;SHT30;61204;49.980;8.358;2024-02-04T09:02:13;10.07;87.87
72277;SHT30;61204;49.980;8.358;2024-02-04T09:04:41;10.24;87.72
72277;SHT30;61204;49.980;8.358;2024-02-04T09:07:09;10.35;87.41
72277;SHT30;61204;49.980;8.358;2024-02-04T09:09:35;10.48;86.96
72277;SHT30;61204;49.980;8.358;2024-02-04T09:12:03;10.45;86.82
72277;SHT30;61204;49.980;8.358;2024-02-04T09:14:29;10.49;86.21
72277;SHT30;61204;49.980;8.358;2024-02-04T09:16:54;10.48;85.97
72277;SHT30;61204;49.980;8.358;2024-02-04T09:19:20;10.46;85.90
72277;SHT30;61204;49.980;8.358;2024-02-04T09:21:45;10.59;85.69
72277;SHT30;61204;49.980;8.358;2024-02-04T09:24:11;10.55;85.19
72277;SHT30;61204;49.980;8.358;2024-02-04T09:26:37;10.62;85.31
72277;SHT30;61204;49.980;8.358;2024-02-04T09:29:05;10.72;84.94
72277;SHT30;61204;49.980;8.358;2024-02-04T09:31:31;10.81;84.61
72277;SHT30;61204;49.980;8.358;2024-02-04T09:33:56;10.99;83.77
72277;SHT30;61204;49.980;8.358;2024-02-04T09:36:23;11.41;82.55
72277;SHT30;61204;49.980;8.358;2024-02-04T09:38:53;11.55;81.97
72277;SHT30;61204;49.980;8.358;2024-02-04T09:41:20;11.28;82.08
72277;SHT30;61204;49.980;8.358;2024-02-04T09:43:45;11.36;82.96
72277;SHT30;61204;49.980;8.358;2024-02-04T09:46:11;11.24;82.94
72277;SHT30;61204;49.980;8.358;2024-02-04T09:48:38;11.36;82.47
72277;SHT30;61204;49.980;8.358;2024-02-04T09:51:08;11.45;82.32
72277;SHT30;61204;49.980;8.358;2024-02-04T09:53:35;11.46;82.96
72277;SHT30;61204;49.980;8.358;2024-02-04T09:56:03;11.34;83.16
72277;SHT30;61204;49.980;8.358;2024-02-04T09:58:32;11.15;83.41
72277;SHT30;61204;49.980;8.358;2024-02-04T10:01:00;11.00;83.36
72277;SHT30;61204;49.980;8.358;2024-02-04T10:03:26;11.18;83.07
72277;SHT30;61204;49.980;8.358;2024-02-04T10:05:52;11.22;82.82
72277;SHT30;61204;49.980;8.358;2024-02-04T10:08:18;10.94;83.55
72277;SHT30;61204;49.980;8.358;2024-02-04T10:10:45;11.11;83.79
72277;SHT30;61204;49.980;8.358;2024-02-04T10:13:12;11.07;84.20
72277;SHT30;61204;49.980;8.358;2024-02-04T10:15:40;11.25;83.81
72277;SHT30;61204;49.980;8.358;2024-02-04T10:18:07;11.24;83.56
72277;SHT30;61204;49.980;8.358;2024-02-04T10:20:34;11.22;83.28
72277;SHT30;61204;49.980;8.358;2024-02-04T10:23:00;10.87;84.29
72277;SHT30;61204;49.980;8.358;2024-02-04T10:25:26;10.87;84.24
72277;SHT30;61204;49.980;8.358;2024-02-04T10:27:53;10.96;84.16
72277;SHT30;61204;49.980;8.358;2024-02-04T10:30:22;11.07;84.19
72277;SHT30;61204;49.980;8.358;2024-02-04T10:32:53;10.94;84.53
72277;SHT30;61204;49.980;8.358;2024-02-04T10:35:23;10.90;84.70
72277;SHT30;61204;49.980;8.358;2024-02-04T10:37:52;10.99;84.56
72277;SHT30;61204;49.980;8.358;2024-02-04T10:40:21;11.06;84.21
72277;SHT30;61204;49.980;8.358;2024-02-04T10:42:46;11.08;84.08
72277;SHT30;61204;49.980;8.358;2024-02-04T10:45:17;11.08;83.80
72277;SHT30;61204;49.980;8.358;2024-02-04T10:47:56;11.36;83.16
72277;SHT30;61204;49.980;8.358;2024-02-04T10:50:27;11.49;82.71
72277;SHT30;61204;49.980;8.358;2024-02-04T10:53:01;11.51;82.59
72277;SHT30;61204;49.980;8.358;2024-02-04T10:55:40;11.46;82.67
72277;SHT30;61204;49.980;8.358;2024-02-04T10:58:13;11.52;81.81
72277;SHT30;61204;49.980;8.358;2024-02-04T11:00:42;11.59;82.36
72277;SHT30;61204;49.980;8.358;2024-02-04T11:03:08;11.56;81.73
72277;SHT30;61204;49.980;8.358;2024-02-04T11:05:36;11.43;82.55
72277;SHT30;61204;49.980;8.358;2024-02-04T11:08:05;11.46;82.92
72277;SHT30;61204;49.980;8.358;2024-02-04T11:10:32;11.39;83.09
72277;SHT30;61204;49.980;8.358;2024-02-04T11:13:00;11.17;83.56
72277;SHT30;61204;49.980;8.358;2024-02-04T11:15:36;11.45;83.45
72277;SHT30;61204;49.980;8.358;2024-02-04T11:27:35;12.00;81.59
72277;SHT30;61204;49.980;8.358;2024-02-04T11:30:08;11.79;82.05
72277;SHT30;61204;49.980;8.358;2024-02-04T11:32:35;12.04;81.29
72277;SHT30;61204;49.980;8.358;2024-02-04T11:35:04;11.67;81.98
72277;SHT30;61204;49.980;8.358;2024-02-04T11:37:33;11.62;82.45
72277;SHT30;61204;49.980;8.358;2024-02-04T11:39:59;11.49;83.22
72277;SHT30;61204;49.980;8.358;2024-02-04T11:42:31;11.34;83.41
72277;SHT30;61204;49.980;8.358;2024-02-04T11:45:11;11.49;83.39
72277;SHT30;61204;49.980;8.358;2024-02-04T11:47:38;11.38;83.11
72277;SHT30;61204;49.980;8.358;2024-02-04T11:50:06;11.18;83.99
72277;SHT30;61204;49.980;8.358;2024-02-04T11:52:34;11.30;84.00
72277;SHT30;61204;49.980;8.358;2024-02-04T11:55:01;11.11;84.11
72277;SHT30;61204;49.980;8.358;2024-02-04T11:57:32;11.07;84.34
72277;SHT30;61204;49.980;8.358;2024-02-04T11:59:59;11.15;84.10
72277;SHT30;61204;49.980;8.358;2024-02-04T12:02:26;11.14;84.15
72277;SHT30;61204;49.980;8.358;2024-02-04T12:04:55;11.17;84.50
72277;SHT30;61204;49.980;8.358;2024-02-04T12:07:21;11.18;84.00
72277;SHT30;61204;49.980;8.358;2024-02-04T12:09:50;11.13;84.47
72277;SHT30;61204;49.980;8.358;2024-02-04T12:12:16;11.20;84.31
72277;SHT30;61204;49.980;8.358;2024-02-04T12:14:45;11.18;84.21
72277;SHT30;61204;49.980;8.358;2024-02-04T12:17:14;11.24;84.07
72277;SHT30;61204;49.980;8.358;2024-02-04T12:19:39;11.32;83.60
72277;SHT30;61204;49.980;8.358;2024-02-04T12:22:05;11.35;83.53
72277;SHT30;61204;49.980;8.358;2024-02-04T12:24:38;11.51;83.09
72277;SHT30;61204;49.980;8.358;2024-02-04T12:27:05;11.49;83.05
72277;SHT30;61204;49.980;8.358;2024-02-04T12:29:32;11.54;82.92
72277;SHT30;61204;49.980;8.358;2024-02-04T12:32:07;11.54;82.80
72277;SHT30;61204;49.980;8.358;2024-02-04T12:34:32;11.48;83.03
72277;SHT30;61204;49.980;8.358;2024-02-04T12:37:02;11.54;82.95
72277;SHT30;61204;49.980;8.358;2024-02-04T12:39:30;11.55;82.80
72277;SHT30;61204;49.980;8.358;2024-02-04T12:41:58;11.49;83.19
72277;SHT30;61204;49.980;8.358;2024-02-04T12:44:24;11.49;83.02
72277;SHT30;61204;49.980;8.358;2024-02-04T12:46:51;11.42;83.17
72277;SHT30;61204;49.980;8.358;2024-02-04T12:49:22;11.32;83.60
72277;SHT30;61204;49.980;8.358;2024-02-04T12:51:49;11.32;83.89
72277;SHT30;61204;49.980;8.358;2024-02-04T12:54:17;11.28;84.04
72277;SHT30;61204;49.980;8.358;2024-02-04T12:59:27;11.20;84.22
72277;SHT30;61204;49.980;8.358;2024-02-04T13:02:08;11.27;84.13
72277;SHT30;61204;49.980;8.358;2024-02-04T13:04:39;11.25;84.46
72277;SHT30;61204;49.980;8.358;2024-02-04T13:07:13;11.14;84.49
72277;SHT30;61204;49.980;8.358;2024-02-04T13:09:40;11.22;84.56
72277;SHT30;61204;49.980;8.358;2024-02-04T13:12:08;11.21;84.38
72277;SHT30;61204;49.980;8.358;2024-02-04T13:14:36;11.32;84.19
72277;SHT30;61204;49.980;8.358;2024-02-04T13:17:04;11.31;84.09
72277;SHT30;61204;49.980;8.358;2024-02-04T13:19:38;11.25;84.24
72277;SHT30;61204;49.980;8.358;2024-02-04T13:22:07;11.31;84.31
72277;SHT30;61204;49.980;8.358;2024-02-04T13:24:35;11.24;84.40
72277;SHT30;61204;49.980;8.358;2024-02-04T13:27:05;11.28;84.37
72277;SHT30;61204;49.980;8.358;2024-02-04T13:29:34;11.27;84.35
72277;SHT30;61204;49.980;8.358;2024-02-04T13:32:00;11.32;84.13
72277;SHT30;61204;49.980;8.358;2024-02-04T13:34:25;11.28;84.23
72277;SHT30;61204;49.980;8.358;2024-02-04T13:36:51;11.24;84.27
72277;SHT30;61204;49.980;8.358;2024-02-04T13:39:17;11.28;84.10
72277;SHT30;61204;49.980;8.358;2024-02-04T13:41:43;11.25;83.92
72277;SHT30;61204;49.980;8.358;2024-02-04T13:44:10;11.30;84.43
72277;SHT30;61204;49.980;8.358;2024-02-04T13:46:35;11.35;83.61
72277;SHT30;61204;49.980;8.358;2024-02-04T13:49:02;11.38;83.72
72277;SHT30;61204;49.980;8.358;2024-02-04T13:51:29;11.30;83.74
72277;SHT30;61204;49.980;8.358;2024-02-04T13:53:55;11.21;83.98
72277;SHT30;61204;49.980;8.358;2024-02-04T13:56:20;11.30;83.47
72277;SHT30;61204;49.980;8.358;2024-02-04T13:58:46;11.35;83.56
72277;SHT30;61204;49.980;8.358;2024-02-04T14:01:14;11.38;83.34
72277;SHT30;61204;49.980;8.358;2024-02-04T14:03:43;11.35;83.36
72277;SHT30;61204;49.980;8.358;2024-02-04T14:06:09;11.36;83.45
72277;SHT30;61204;49.980;8.358;2024-02-04T14:08:34;11.34;83.52
72277;SHT30;61204;49.980;8.358;2024-02-04T14:11:00;11.31;83.63
72277;SHT30;61204;49.980;8.358;2024-02-04T14:13:28;11.31;83.78
72277;SHT30;61204;49.980;8.358;2024-02-04T14:15:54;11.31;83.89
72277;SHT30;61204;49.980;8.358;2024-02-04T14:18:19;11.32;83.57
72277;SHT30;61204;49.980;8.358;2024-02-04T14:20:45;11.38;83.41
72277;SHT30;61204;49.980;8.358;2024-02-04T14:23:11;11.36;83.52
72277;SHT30;61204;49.980;8.358;2024-02-04T14:25:36;11.43;83.12
72277;SHT30;61204;49.980;8.358;2024-02-04T14:28:02;11.45;82.91
72277;SHT30;61204;49.980;8.358;2024-02-04T14:30:27;11.52;83.09
72277;SHT30;61204;49.980;8.358;2024-02-04T14:32:53;11.58;82.85
72277;SHT30;61204;49.980;8.358;2024-02-04T14:35:19;11.65;82.96
72277;SHT30;61204;49.980;8.358;2024-02-04T14:37:47;11.52;82.64
72277;SHT30;61204;49.980;8.358;2024-02-04T14:40:16;11.52;82.67
72277;SHT30;61204;49.980;8.358;2024-02-04T14:42:41;11.62;82.29
72277;SHT30;61204;49.980;8.358;2024-02-04T14:45:08;11.62;82.22
72277;SHT30;61204;49.980;8.358;2024-02-04T14:47:36;11.62;82.35
72277;SHT30;61204;49.980;8.358;2024-02-04T14:50:02;11.69;82.12
72277;SHT30;61204;49.980;8.358;2024-02-04T14:52:28;11.61;82.20
72277;SHT30;61204;49.980;8.358;2024-02-04T14:54:53;11.59;82.37
72277;SHT30;61204;49.980;8.358;2024-02-04T14:57:19;11.58;82.72
72277;SHT30;61204;49.980;8.358;2024-02-04T14:59:44;11.65;82.64
72277;SHT30;61204;49.980;8.358;2024-02-04T15:02:10;11.61;82.62
72277;SHT30;61204;49.980;8.358;2024-02-04T15:04:35;11.56;82.83
72277;SHT30;61204;49.980;8.358;2024-02-04T15:07:01;11.54;83.07
72277;SHT30;61204;49.980;8.358;2024-02-04T15:09:32;11.59;83.05
72277;SHT30;61204;49.980;8.358;2024-02-04T15:11:58;11.59;83.03
72277;SHT30;61204;49.980;8.358;2024-02-04T15:14:25;11.56;83.11
72277;SHT30;61204;49.980;8.358;2024-02-04T15:16:51;11.56;82.99
72277;SHT30;61204;49.980;8.358;2024-02-04T15:19:17;11.59;82.80
72277;SHT30;61204;49.980;8.358;2024-02-04T15:21:43;11.61;82.81
72277;SHT30;61204;49.980;8.358;2024-02-04T15:24:10;11.58;82.94
72277;SHT30;61204;49.980;8.358;2024-02-04T15:26:39;11.58;83.01
72277;SHT30;61204;49.980;8.358;2024-02-04T15:29:06;11.69;82.63
72277;SHT30;61204;49.980;8.358;2024-02-04T15:31:35;11.54;82.95
72277;SHT30;61204;49.980;8.358;2024-02-04T15:34:02;11.61;82.92
72277;SHT30;61204;49.980;8.358;2024-02-04T15:36:30;11.61;83.13
72277;SHT30;61204;49.980;8.358;2024-02-04T15:38:57;11.54;83.10
72277;SHT30;61204;49.980;8.358;2024-02-04T15:41:23;11.52;83.21
72277;SHT30;61204;49.980;8.358;2024-02-04T15:43:49;11.46;83.37
72277;SHT30;61204;49.980;8.358;2024-02-04T15:46:17;11.48;83.17
72277;SHT30;61204;49.980;8.358;2024-02-04T15:48:45;11.56;83.22
72277;SHT30;61204;49.980;8.358;2024-02-04T15:51:17;11.65;82.51
72277;SHT30;61204;49.980;8.358;2024-02-04T15:53:43;11.56;82.69
72277;SHT30;61204;49.980;8.358;2024-02-04T15:56:10;11.52;82.80
72277;SHT30;61204;49.980;8.358;2024-02-04T15:58:38;11.52;82.68